Data for 08/21/2013

Time Sea-Level Adjusted Pressure Absolute Pressure Temperature Relative Humidity Dew Point   
(mb) (inHg) (mb) (inHg) (C) (F) (%) (C) (F)
00:05 1020 30.12 850 25.1 18.1 64.6 32 1.2 34.1
00:10 1020 30.12 850 25.1 17.9 64.2 33 1.7 35.1
00:15 1021 30.15 850 25.1 17.8 64.1 34 1.8 35.2
00:20 1021 30.15 850 25.1 17.7 63.8 34 1.6 34.8
00:25 1021 30.15 850 25.1 17.7 63.9 38 3.4 38.1
00:30 1021 30.15 850 25.1 17.9 64.2 33 1.5 34.8
00:35 1021 30.15 850 25.1 18.1 64.5 33 1.8 35.2
00:40 1021 30.15 850 25.1 18.2 64.8 32 1.5 34.7
00:45 1021 30.15 850 25.1 18.4 65 39 4.2 39.5
00:50 1021 30.15 850 25.1 18.5 65.4 32 1.8 35.2
00:55 1021 30.15 850 25.1 17.9 64.1 35 2.3 36.1
01:00 1021 30.15 850 25.1 17.1 62.7 36 1.9 35.4
01:05 1021 30.15 850 25.1 16.9 62.5 38 2.5 36.6
01:10 1021 30.15 850 25.1 17 62.7 39 2.9 37.3
01:15 1021 30.15 850 25.1 16.9 62.5 36 2 35.6
01:20 1021 30.15 850 25.1 16.5 61.8 37 2 35.6
01:25 1021 30.15 850 25.1 16.3 61.3 37 1.8 35.3
01:30 1021 30.15 850 25.1 16.3 61.3 37 1.7 35.1
01:35 1021 30.15 850 25.1 16.3 61.4 37 1.8 35.3
01:40 1021 30.15 850 25.1 16.5 61.7 37 1.7 35
01:45 1021 30.15 850 25.1 16.7 62.1 36 1.7 35
01:50 1021 30.15 850 25.1 16.8 62.2 36 1.7 35
01:55 1021 30.15 850 25.1 16.7 62.1 36 1.9 35.4
02:00 1021 30.15 850 25.1 16.4 61.4 39 2.6 36.7
02:05 1021 30.15 850 25.1 15.9 60.6 39 2 35.6
02:10 1021 30.15 850 25.1 16.2 61.1 37 1.5 34.7
02:15 1021 30.15 850 25.1 16.3 61.4 39 2.3 36.2
02:20 1021 30.15 850 25.1 15.8 60.4 40 2.3 36.2
02:25 1021 30.15 850 25.1 15.7 60.2 40 2.2 36
02:30 1021 30.15 850 25.1 15.8 60.5 38 1.6 34.8
02:35 1021 30.15 851 25.13 16.2 61.1 37 1.7 35
02:40 1021 30.15 851 25.13 16.4 61.6 37 1.9 35.4
02:45 1021 30.15 851 25.13 16.5 61.8 35 1.3 34.3
02:50 1021 30.15 851 25.13 16.9 62.4 35 1.4 34.6
02:55 1021 30.15 851 25.13 16.8 62.2 35 1.5 34.7
03:00 1021 30.15 851 25.13 16.9 62.4 35 1.3 34.4
03:05 1022 30.18 851 25.13 17.2 63 38 2.8 37.1
03:10 1022 30.18 851 25.13 17.2 63 35 1.7 35
03:15 1021 30.15 851 25.13 17.1 62.8 36 1.9 35.4
03:20 1022 30.18 851 25.13 16.9 62.5 36 1.8 35.2
03:25 1022 30.18 851 25.13 16.8 62.2 37 2.1 35.7
03:30 1022 30.18 851 25.13 16.6 61.8 40 3 37.4
03:35 1022 30.18 851 25.13 16.3 61.3 38 2 35.6
03:40 1022 30.18 851 25.13 16.4 61.6 37 1.7 35
03:45 1022 30.18 851 25.13 16.4 61.5 38 2 35.6
03:50 1022 30.18 851 25.13 16.5 61.7 36 1.7 35
03:55 1022 30.18 851 25.13 16.3 61.3 41 3 37.4
04:00 1022 30.18 851 25.13 15 59.1 46 3.6 38.5
04:05 1022 30.18 851 25.13 13.9 57.1 49 3.4 38.2
04:10 1022 30.18 851 25.13 13.7 56.6 48 2.9 37.2
04:15 1022 30.18 851 25.13 13.7 56.7 46 2.4 36.3
04:20 1022 30.18 851 25.13 14 57.2 46 2.7 36.8
04:25 1022 30.18 851 25.13 14.1 57.3 46 2.6 36.7
04:30 1022 30.18 851 25.13 14 57.2 45 2.3 36.2
04:35 1022 30.18 851 25.13 14.2 57.5 44 2.3 36.1
04:40 1022 30.18 851 25.13 14.5 58.1 41 1.6 34.8
04:45 1022 30.18 851 25.13 15 59 41 2 35.7
04:50 1022 30.18 851 25.13 15.1 59.2 42 2.4 36.2
04:55 1022 30.18 851 25.13 14.7 58.5 43 2.4 36.3
05:00 1022 30.18 851 25.13 14.4 57.8 44 2.4 36.4
05:05 1022 30.18 851 25.13 14 57.1 45 2.4 36.4
05:10 1022 30.18 851 25.13 13.9 57 45 2.2 36
05:15 1022 30.18 851 25.13 13.9 57.1 45 2.2 36
05:20 1022 30.18 851 25.13 14 57.2 43 1.6 34.8
05:25 1022 30.18 851 25.13 14.4 58 42 1.8 35.3
05:30 1022 30.18 851 25.13 14.5 58.2 41 1.7 35
05:35 1022 30.18 851 25.13 14.9 58.8 41 1.9 35.4
05:40 1022 30.18 851 25.13 14.9 58.7 41 1.9 35.4
05:45 1022 30.18 851 25.13 14.9 58.8 41 1.7 35
05:50 1022 30.18 851 25.13 15 59 41 1.8 35.2
05:55 1022 30.18 851 25.13 15.1 59.2 41 1.9 35.5
06:00 1022 30.18 851 25.13 14.9 58.7 42 2.2 36
06:05 1022 30.18 851 25.13 14.6 58.3 43 2.2 36
06:10 1022 30.18 851 25.13 14.5 58.1 43 2.3 36.1
06:15 1022 30.18 851 25.13 14.4 57.9 44 2.3 36.2
06:20 1022 30.18 851 25.13 14.3 57.8 44 2.2 36
06:25 1022 30.18 851 25.13 14.5 58 43 2.2 35.9
06:30 1022 30.18 851 25.13 14.8 58.6 41 1.9 35.4
06:35 1022 30.18 851 25.13 15 59.1 41 1.9 35.5
06:40 1022 30.18 851 25.13 15.2 59.4 42 2.3 36.2
06:45 1022 30.18 851 25.13 15.4 59.7 41 2.2 36
06:50 1022 30.18 851 25.13 15.6 60.1 41 2.4 36.2
06:55 1022 30.18 851 25.13 15.8 60.4 41 2.5 36.6
07:00 1022 30.18 851 25.13 16 60.7 39 2.3 36.1
07:05 1022 30.18 851 25.13 16.2 61.1 38 2.1 35.7
07:10 1022 30.18 851 25.13 16.2 61.1 39 2.2 36
07:15 1022 30.18 851 25.13 16.4 61.5 39 2.4 36.4
07:20 1022 30.18 851 25.13 16.8 62.2 38 2.7 36.8
07:25 1022 30.18 851 25.13 17 62.6 37 2.2 35.9
07:30 1022 30.18 851 25.13 17.3 63.1 39 3.2 37.8
07:35 1022 30.18 852 25.16 17.8 64 38 3.4 38.1
07:40 1022 30.18 852 25.16 17.9 64.3 39 3.8 38.9
07:45 1022 30.18 852 25.16 18.3 65 36 3.1 37.6
07:50 1022 30.18 852 25.16 18.6 65.4 35 2.8 37
07:55 1022 30.18 852 25.16 18.9 66.1 35 3.3 38
08:00 1022 30.18 852 25.16 19.6 67.2 33 3.2 37.7
08:05 1022 30.18 852 25.16 20.1 68.2 33 3.3 37.9
08:10 1022 30.18 852 25.16 20.7 69.2 30 2.6 36.6
08:15 1022 30.18 852 25.16 21.6 70.8 30 3.4 38.1
08:20 1022 30.18 852 25.16 21.3 70.3 30 3.1 37.5
08:25 1022 30.18 852 25.16 20.5 68.8 31 2.8 37.1
08:30 1022 30.18 852 25.16 21 69.8 30 2.8 37.1
08:35 1023 30.21 852 25.16 21.9 71.4 28 2.9 37.3
08:40 1023 30.21 852 25.16 22 71.5 30 3.8 38.8
08:45 1023 30.21 852 25.16 21.6 70.9 30 3.3 37.9
08:50 1023 30.21 852 25.16 22 71.5 29 3.4 38.2
08:55 1023 30.21 852 25.16 22.5 72.4 28 3.4 38.1
09:00 1023 30.21 852 25.16 22.8 73.1 29 4 39.2
09:05 1022 30.18 852 25.16 22.8 73.1 29 4.2 39.5
09:10 1022 30.18 852 25.16 22.9 73.2 28 3.8 38.8
09:15 1022 30.18 852 25.16 23 73.4 28 3.6 38.4
09:20 1022 30.18 852 25.16 23.2 73.8 28 3.9 39
09:25 1022 30.18 852 25.16 22.9 73.3 28 3.8 38.8
09:30 1022 30.18 852 25.16 23.4 74.1 26 3.2 37.8
09:35 1022 30.18 852 25.16 23.4 74 26 3 37.3
09:40 1022 30.18 852 25.16 23.6 74.5 25 2.9 37.2
09:45 1022 30.18 852 25.16 23.9 75 25 2.9 37.3
09:50 1022 30.18 852 25.16 24.1 75.3 24 2.6 36.7
09:55 1022 30.18 852 25.16 23.3 73.9 25 2.3 36.2
10:00 1022 30.18 851 25.13 23.7 74.7 25 2.8 37
10:05 1022 30.18 852 25.16 24.3 75.7 24 2.5 36.6
10:10 1022 30.18 852 25.16 24.2 75.5 24 2.5 36.6
10:15 1022 30.18 852 25.16 24.1 75.4 24 2.6 36.7
10:20 1022 30.18 852 25.16 24.2 75.6 24 2.6 36.7
10:25 1022 30.18 851 25.13 24.3 75.8 23 2.4 36.3
10:30 1022 30.18 852 25.16 24.6 76.3 23 2.5 36.5
10:35 1022 30.18 851 25.13 25.2 77.3 23 2.9 37.2
10:40 1022 30.18 851 25.13 25 77.1 23 2.9 37.2
10:45 1022 30.18 851 25.13 24.9 76.8 23 2.8 37
10:50 1022 30.18 851 25.13 24.9 76.8 23 2.4 36.3
10:55 1022 30.18 851 25.13 25 77 23 2.7 36.8
11:00 1022 30.18 851 25.13 25.2 77.4 23 3.1 37.6
11:05 1022 30.18 851 25.13 25.6 78.1 23 3.2 37.8
11:10 1022 30.18 851 25.13 25.4 77.7 22 2.5 36.5
11:15 1022 30.18 851 25.13 25.4 77.6 22 2.2 35.9
11:20 1022 30.18 851 25.13 25.6 78.1 22 2.4 36.3
11:25 1022 30.18 851 25.13 25.5 77.9 22 2.6 36.6
11:30 1022 30.18 851 25.13 25.7 78.2 22 2.4 36.3
11:35 1022 30.18 851 25.13 25.7 78.2 21 2.2 36
11:40 1022 30.18 851 25.13 25.5 77.9 22 2.5 36.5
11:45 1022 30.18 851 25.13 25.4 77.7 22 2.5 36.6
11:50 1022 30.18 851 25.13 25.8 78.4 22 2.9 37.2
11:55 1022 30.18 851 25.13 26.2 79.1 22 3.3 38
12:00 1022 30.18 851 25.13 26.4 79.4 21 2.7 36.8
12:05 1022 30.18 851 25.13 26.1 78.9 22 3 37.5
12:10 1022 30.18 851 25.13 26.1 79 21 2.2 36
12:15 1022 30.18 851 25.13 26.4 79.5 22 3.2 37.7
12:20 1022 30.18 851 25.13 26.5 79.6 21 2.6 36.6
12:25 1022 30.18 851 25.13 26.1 79.1 22 2.8 37.1
12:30 1022 30.18 851 25.13 26.1 79 22 2.9 37.2
12:35 1022 30.18 851 25.13 26.8 80.2 20 2.4 36.4
12:40 1022 30.18 851 25.13 27.3 81.1 21 3.4 38.2
12:45 1022 30.18 851 25.13 27.5 81.5 20 3.1 37.6
12:50 1022 30.18 851 25.13 27.3 81.1 22 4.3 39.7
12:55 1022 30.18 851 25.13 27.9 82.2 20 2.9 37.3
13:00 1022 30.18 851 25.13 28 82.5 19 2.7 36.8
13:05 1022 30.18 851 25.13 27.7 81.8 21 3.5 38.3
13:10 1022 30.18 851 25.13 27.8 82 19 2.7 36.9
13:15 1022 30.18 851 25.13 28 82.4 20 3.5 38.3
13:20 1021 30.15 851 25.13 28.3 83 19 3.1 37.6
13:25 1021 30.15 851 25.13 28.6 83.6 19 3 37.5
13:30 1021 30.15 851 25.13 28.3 83 20 3.5 38.4
13:35 1021 30.15 851 25.13 28.5 83.3 19 3.3 37.9
13:40 1021 30.15 850 25.1 28.9 84 19 3.1 37.6
13:45 1021 30.15 850 25.1 28.6 83.6 20 3.6 38.5
13:50 1021 30.15 850 25.1 28.4 83.1 20 3.4 38.1
13:55 1021 30.15 850 25.1 28.8 83.9 19 3.5 38.3
14:00 1021 30.15 850 25.1 29 84.2 19 3.5 38.3
14:05 1021 30.15 850 25.1 28.8 83.8 20 3.9 39.1
14:10 1021 30.15 850 25.1 29.3 84.7 18 3.2 37.8
14:15 1021 30.15 850 25.1 29.9 85.9 18 3.3 38
14:20 1021 30.15 850 25.1 29.5 85 18 3.2 37.7
14:25 1021 30.15 850 25.1 29 84.2 20 4 39.3
14:30 1021 30.15 850 25.1 29.2 84.6 18 3.1 37.6
14:35 1021 30.15 850 25.1 29.4 84.9 18 2.9 37.2
14:40 1021 30.15 850 25.1 29 84.3 19 3.5 38.4
14:45 1021 30.15 850 25.1 28.8 83.8 19 3.2 37.8
14:50 1021 30.15 850 25.1 28.3 82.9 19 2.9 37.1
14:55 1021 30.15 850 25.1 28.4 83 19 3 37.3
15:00 1021 30.15 850 25.1 28.2 82.8 19 2.7 36.9
15:05 1021 30.15 850 25.1 29.1 84.4 18 2.5 36.4
15:10 1021 30.15 850 25.1 29.5 85.2 18 3.4 38
15:15 1021 30.15 850 25.1 29.4 85 18 3.2 37.7
15:20 1021 30.15 850 25.1 29.3 84.7 18 2.9 37.2
15:25 1021 30.15 850 25.1 29.7 85.4 17 2.3 36.1
15:30 1020 30.12 850 25.1 29.4 84.8 17 2.1 35.8
15:35 1020 30.12 850 25.1 29.4 85 17 2 35.6
15:40 1020 30.12 850 25.1 29.5 85 17 2.1 35.8
15:45 1020 30.12 850 25.1 28.9 84 18 2.4 36.3
15:50 1020 30.12 850 25.1 29.1 84.3 17 1.7 35
15:55 1020 30.12 849 25.07 29.2 84.5 17 2.3 36.1
16:00 1020 30.12 849 25.07 29.4 84.9 16 1.2 34.2
16:05 1020 30.12 849 25.07 29.4 85 15 0.6 33.1
16:10 1020 30.12 849 25.07 29 84.2 15 0.2 32.4
16:15 1020 30.12 849 25.07 28.6 83.5 15 0.2 32.4
16:20 1020 30.12 849 25.07 28.6 83.5 16 0.3 32.6
16:25 1020 30.12 849 25.07 28.4 83.2 17 1.4 34.6
16:30 1020 30.12 849 25.07 28.1 82.6 16 0.6 33
16:35 1020 30.12 849 25.07 28.2 82.8 17 1.1 33.9
16:40 1020 30.12 849 25.07 27.8 82.1 17 0.6 33.1
16:45 1020 30.12 849 25.07 27.6 81.6 16 -0 32
16:50 1020 30.12 849 25.07 27.6 81.7 16 -0.4 31.2
16:55 1020 30.12 849 25.07 27.5 81.6 16 -0.2 31.6
17:00 1020 30.12 849 25.07 27.5 81.4 16 -0.5 31.2
17:05 1020 30.12 849 25.07 27.4 81.3 16 -0.1 31.8
17:10 1020 30.12 849 25.07 27.3 81.2 16 -0.1 31.9
17:15 1020 30.12 849 25.07 27.3 81.1 17 -0 32
17:20 1020 30.12 849 25.07 26.9 80.4 17 -0.1 31.8
17:25 1020 30.12 849 25.07 26.5 79.7 18 0.2 32.4
17:30 1020 30.12 849 25.07 26.2 79.2 18 -0 32
17:35 1020 30.12 849 25.07 26.2 79.1 18 0.2 32.4
17:40 1020 30.12 849 25.07 26.2 79.1 19 0.6 33.1
17:45 1020 30.12 849 25.07 26.1 79 18 0.5 32.9
17:50 1020 30.12 849 25.07 26.1 79 18 0.4 32.7
17:55 1020 30.12 849 25.07 26.1 78.9 18 0.3 32.5
18:00 1020 30.12 849 25.07 26 78.9 18 0.5 32.9
18:05 1020 30.12 849 25.07 26 78.7 19 0.8 33.4
18:10 1020 30.12 849 25.07 25.9 78.7 19 0.9 33.7
18:15 1020 30.12 849 25.07 25.8 78.5 19 0.8 33.5
18:20 1020 30.12 849 25.07 25.8 78.4 20 1.1 34
18:25 1020 30.12 849 25.07 25.7 78.2 20 1.2 34.1
18:30 1020 30.12 849 25.07 25.6 78 20 1.3 34.3
18:35 1020 30.12 849 25.07 25.4 77.8 20 1.3 34.4
18:40 1020 30.12 849 25.07 25.3 77.5 20 1.3 34.3
18:45 1020 30.12 849 25.07 25.2 77.4 21 1.6 34.8
18:50 1020 30.12 849 25.07 25 77.1 21 1.5 34.8
18:55 1020 30.12 850 25.1 24.9 76.8 22 1.7 35.1
19:00 1020 30.12 850 25.1 24.7 76.5 22 1.9 35.5
19:05 1020 30.12 850 25.1 24.5 76.1 23 2 35.6
19:10 1020 30.12 850 25.1 24.4 75.9 23 2.2 35.9
19:15 1020 30.12 850 25.1 24.2 75.5 23 2.2 35.9
19:20 1020 30.12 850 25.1 24 75.3 24 2.2 36
19:25 1020 30.12 850 25.1 23.9 75 24 2.3 36.2
19:30 1021 30.15 850 25.1 23.7 74.7 24 2.4 36.4
19:35 1021 30.15 850 25.1 23.6 74.4 25 2.5 36.5
19:40 1021 30.15 850 25.1 23.4 74.2 25 2.5 36.5
19:45 1021 30.15 850 25.1 23.3 74 25 2.6 36.6
19:50 1021 30.15 850 25.1 23.2 73.7 26 2.8 37.1
19:55 1021 30.15 850 25.1 23.1 73.5 26 2.9 37.2
20:00 1021 30.15 850 25.1 23 73.3 26 2.9 37.1
20:05 1021 30.15 850 25.1 22.9 73.2 27 2.9 37.2
20:10 1021 30.15 850 25.1 22.8 73.1 27 2.9 37.2
20:15 1021 30.15 850 25.1 22.8 73 27 2.9 37.2
20:20 1021 30.15 850 25.1 22.8 73 27 3 37.4
20:25 1021 30.15 850 25.1 22.7 72.9 27 3.1 37.6
20:30 1021 30.15 850 25.1 22.7 72.8 27 3.2 37.7
20:35 1021 30.15 850 25.1 22.7 72.8 28 3.2 37.8
20:40 1021 30.15 850 25.1 22.7 72.9 28 3.3 37.9
20:45 1021 30.15 850 25.1 22.6 72.7 28 3.4 38.1
20:50 1021 30.15 851 25.13 22.2 72 29 3.4 38.1
20:55 1021 30.15 851 25.13 22.2 71.9 29 3.3 37.9
21:00 1021 30.15 851 25.13 22.2 72 29 3.5 38.3
21:05 1021 30.15 851 25.13 22 71.6 30 3.6 38.5
21:10 1021 30.15 851 25.13 21.9 71.5 29 3.5 38.3
21:15 1021 30.15 851 25.13 22 71.7 30 3.6 38.6
21:20 1021 30.15 851 25.13 22.1 71.8 30 3.7 38.7
21:25 1021 30.15 851 25.13 22 71.6 30 3.9 39
21:30 1021 30.15 851 25.13 21.9 71.4 30 3.8 38.9
21:35 1022 30.18 851 25.13 21.9 71.3 30 3.9 39
21:40 1022 30.18 851 25.13 21.8 71.2 31 4 39.2
21:45 1022 30.18 851 25.13 21.9 71.3 31 4 39.3
21:50 1022 30.18 851 25.13 21.8 71.2 31 4.1 39.3
21:55 1022 30.18 851 25.13 21.7 71.1 31 4.2 39.5
22:00 1022 30.18 851 25.13 21.7 71 31 4.2 39.6
22:05 1022 30.18 851 25.13 21.6 70.9 32 4.3 39.7
22:10 1022 30.18 851 25.13 21.5 70.7 32 4.3 39.7
22:15 1022 30.18 851 25.13 21.3 70.3 32 4.3 39.7
22:20 1022 30.18 851 25.13 21.2 70.2 32 4.2 39.6
22:25 1022 30.18 851 25.13 21.2 70.2 33 4.3 39.7
22:30 1022 30.18 851 25.13 21.1 70 33 4.3 39.7
22:35 1022 30.18 851 25.13 21.1 70 33 4.3 39.8
22:40 1022 30.18 851 25.13 21 69.8 33 4.3 39.7
22:45 1022 30.18 851 25.13 20.9 69.6 33 4.1 39.4
22:50 1022 30.18 851 25.13 20.9 69.6 33 4.1 39.5
22:55 1022 30.18 851 25.13 20.8 69.4 33 4 39.2
23:00 1022 30.18 851 25.13 20.8 69.4 33 4 39.1
23:05 1022 30.18 851 25.13 20.7 69.3 33 4 39.1
23:10 1022 30.18 851 25.13 20.6 69.1 33 4 39.2
23:15 1022 30.18 851 25.13 20.5 68.9 33 4 39.2
23:20 1022 30.18 851 25.13 20.4 68.6 34 4 39.2
23:25 1022 30.18 851 25.13 20.2 68.4 34 4.1 39.3
23:30 1022 30.18 851 25.13 20.2 68.3 34 4.1 39.4
23:35 1022 30.18 851 25.13 20.1 68.2 35 4.2 39.6
23:40 1022 30.18 851 25.13 20 68.1 35 4.3 39.7
23:45 1022 30.18 851 25.13 20 68 35 4.3 39.7
23:50 1022 30.18 851 25.13 19.9 67.9 35 4.3 39.7
23:55 1022 30.18 851 25.13 19.8 67.6 36 4.3 39.8
24:00 1022 30.18 851 25.13 19.7 67.5 36 4.4 39.8